This is the latest recevied weather packets stored in our database for station/object EA5GTE-12. If no packets are shown the sender has not sent any weather packets the latest 10 day(s).
| Time | Temp. | Humidity | Pressure | Rain* | Wind** | Luminosity | Snow |
|---|---|---|---|---|---|---|---|
| 1777546324 | 26.67° C | 40% | 939.1 hPa | - | - | - | - |
| 1777545424 | 25.56° C | 45% | 939.4 hPa | - | - | - | - |
| 1777544524 | 25° C | 47% | 939.5 hPa | - | - | - | - |
| 1777543624 | 21.67° C | 58% | 939.7 hPa | - | - | - | - |
| 1777542724 | 28.33° C | 39% | 939.7 hPa | - | - | - | - |
| 1777541824 | 25.56° C | 45% | 939.8 hPa | - | - | - | - |
| 1777540924 | 26.67° C | 47% | 939.6 hPa | - | - | - | - |
| 1777540024 | 19.44° C | 91% | 940 hPa | - | - | - | - |
| 1777539124 | 18.89° C | 97% | 940 hPa | - | - | - | - |
| 1777538224 | 20° C | 84% | 939.8 hPa | - | - | - | - |
| 1777537324 | 27.22° C | 47% | 939.4 hPa | - | - | - | - |
| 1777536424 | 25° C | 57% | 939.3 hPa | - | - | - | - |
| 1777535524 | 22.22° C | 74% | 939.5 hPa | - | - | - | - |
| 1777534624 | 21.11° C | 89% | 939.3 hPa | - | - | - | - |
| 1777533724 | 17.22° C | 100% | 939.3 hPa | - | - | - | - |
| 1777531931 | 19.44° C | 100% | 939.1 hPa | - | - | - | - |
| 1777531254 | 20.56° C | 100% | 939 hPa | - | - | - | - |
| 1777531030 | 20.56° C | 100% | 939 hPa | - | - | - | - |
| 1777530126 | 18.33° C | 100% | 939 hPa | - | - | - | - |
| 1777529226 | 15° C | 100% | 939 hPa | - | - | - | - |
| 1777528325 | 13.89° C | 100% | 938.9 hPa | - | - | - | - |
| 1777527425 | 13.33° C | 100% | 938.7 hPa | - | - | - | - |
| 1777526525 | 13.33° C | 100% | 938.6 hPa | - | - | - | - |
| 1777525624 | 13.33° C | 100% | 938.4 hPa | - | - | - | - |
| 1777524724 | 12.78° C | 100% | 938.3 hPa | - | - | - | - |
* Rain since midnight (hover to see other rain measurements)
** Current wind speed in m/s (hover to see current wind gust speed)